Time;durP1;ratioP1;P1;durP2;ratioP2;P2;SDS_P1;SDS_P2;PMS_P1;PMS_P2;Temp;Humidity;BMP_temperature;BMP_pressure;BME280_temperature;BME280_humidity;BME280_pressure;Samples;Min_cycle;Max_cycle;Signal;HPM_P1;HPM_P2
2022/07/31 00:00:35;;;;;;;14.05;10.95;;;;;;;19.20;73.95;101615.03;5066240;28;20040;-80
2022/07/31 00:03:01;;;;;;;12.25;10.02;;;;;;;19.20;73.27;101606.81;5065935;28;20209;-80
2022/07/31 00:05:26;;;;;;;13.03;10.63;;;;;;;19.25;72.63;101597.81;5066360;28;20120;-80
2022/07/31 00:07:53;;;;;;;14.75;10.80;;;;;;;19.08;73.84;101603.31;5064674;28;20040;-80
2022/07/31 00:10:19;;;;;;;12.45;10.60;;;;;;;19.11;74.05;101594.56;5065193;28;20125;-81
2022/07/31 00:12:44;;;;;;;16.17;11.17;;;;;;;18.97;73.87;101596.81;5066584;28;20036;-80
2022/07/31 00:15:11;;;;;;;14.47;10.80;;;;;;;18.90;76.46;101588.75;5066097;28;20036;-81
2022/07/31 00:17:37;;;;;;;14.60;11.07;;;;;;;18.97;75.88;101597.69;5066080;28;20051;-80
2022/07/31 00:20:04;;;;;;;15.98;11.40;;;;;;;18.87;76.31;101594.72;5064546;28;20043;-80
2022/07/31 00:22:29;;;;;;;15.80;11.98;;;;;;;18.66;77.48;101596.31;5066003;28;20062;-81
2022/07/31 00:24:55;;;;;;;15.55;11.20;;;;;;;18.78;77.11;101598.97;5065265;28;20036;-80
2022/07/31 00:27:22;;;;;;;16.33;11.97;;;;;;;18.72;77.62;101593.38;5065565;28;20040;-80
2022/07/31 00:29:47;;;;;;;14.60;11.13;;;;;;;18.70;78.12;101589.25;5065375;28;20094;-80
2022/07/31 00:32:13;;;;;;;13.93;11.70;;;;;;;18.69;78.20;101588.38;5065388;28;20177;-79
2022/07/31 00:34:38;;;;;;;15.80;12.00;;;;;;;18.68;79.16;101583.97;5065923;28;20051;-80
2022/07/31 00:37:03;;;;;;;16.08;11.93;;;;;;;18.77;79.54;101578.91;5065262;28;20076;-79
2022/07/31 00:39:29;;;;;;;14.13;12.00;;;;;;;18.70;78.82;101581.00;5066044;28;20171;-80
2022/07/31 00:41:55;;;;;;;14.10;11.68;;;;;;;18.75;79.53;101588.47;5065257;28;20614;-80
2022/07/31 00:44:21;;;;;;;13.43;12.00;;;;;;;18.71;80.08;101589.00;5062832;28;20033;-80
2022/07/31 00:46:46;;;;;;;14.80;12.10;;;;;;;18.68;80.12;101585.91;5064975;28;20116;-80
2022/07/31 00:49:11;;;;;;;16.17;12.10;;;;;;;18.66;78.92;101580.66;5064953;28;20048;-80
2022/07/31 00:51:38;;;;;;;15.23;11.48;;;;;;;18.62;80.75;101578.63;5063681;28;20582;-80
2022/07/31 00:54:05;;;;;;;14.43;12.30;;;;;;;18.61;80.83;101580.56;5071163;28;20036;-80
2022/07/31 00:56:31;;;;;;;15.37;12.20;;;;;;;18.66;80.17;101577.91;5065035;28;20597;-80
2022/07/31 00:58:56;;;;;;;14.27;11.67;;;;;;;18.56;80.55;101573.09;5064349;28;20105;-81
2022/07/31 01:01:22;;;;;;;16.70;12.70;;;;;;;18.57;81.20;101576.66;5064394;28;20027;-80
2022/07/31 01:03:48;;;;;;;15.27;12.67;;;;;;;18.56;81.26;101569.50;5065142;28;20058;-80
2022/07/31 01:06:14;;;;;;;18.03;12.70;;;;;;;18.49;80.82;101560.59;5064470;28;20036;-80
2022/07/31 01:08:39;;;;;;;14.77;12.23;;;;;;;18.56;81.49;101564.00;5065416;28;20028;-80
2022/07/31 01:11:18;;;;;;;15.53;12.23;;;;;;;18.49;81.68;101560.59;5064000;28;20111;-80
2022/07/31 01:14:01;;;;;;;14.77;12.00;;;;;;;18.55;80.86;101559.63;5064808;28;20024;-80
2022/07/31 01:17:05;;;;;;;19.15;12.48;;;;;;;18.49;81.67;101566.91;5064308;28;20176;-80
2022/07/31 01:19:40;;;;;;;16.70;13.70;;;;;;;18.38;82.67;101562.31;5064649;28;20028;-80
2022/07/31 01:22:31;;;;;;;16.30;13.13;;;;;;;18.46;82.45;101566.59;5064740;28;20074;-80
2022/07/31 01:25:34;;;;;;;14.83;13.13;;;;;;;18.44;82.30;101565.97;5064631;28;20939;-79
2022/07/31 01:28:21;;;;;;;15.73;12.53;;;;;;;18.37;82.63;101567.00;5065308;28;20033;-81
2022/07/31 01:31:23;;;;;;;14.57;12.73;;;;;;;18.36;82.36;101569.97;5063995;28;20024;-80
2022/07/31 01:33:52;;;;;;;17.17;12.77;;;;;;;18.20;83.55;101566.94;5065600;28;20502;-80
2022/07/31 01:36:27;;;;;;;16.87;12.47;;;;;;;18.29;82.01;101559.16;5064467;28;20381;-80
2022/07/31 01:38:56;;;;;;;14.60;12.57;;;;;;;18.15;82.54;101557.78;5069003;28;20528;-81
2022/07/31 01:41:26;;;;;;;15.47;12.17;;;;;;;18.15;81.68;101557.78;5068065;28;20036;-80
2022/07/31 01:43:54;;;;;;;16.13;12.00;;;;;;;18.12;81.89;101559.09;5068911;28;20036;-80
2022/07/31 01:46:21;;;;;;;13.53;11.87;;;;;;;18.11;82.41;101556.63;5068696;28;20031;-80
2022/07/31 01:48:48;;;;;;;14.57;11.67;;;;;;;18.00;82.21;101561.06;5068350;28;20032;-81
2022/07/31 01:51:16;;;;;;;18.40;10.40;;;;;;;18.03;80.26;101558.69;5069190;28;20043;-80
2022/07/31 01:53:45;;;;;;;13.70;9.87;;;;;;;17.96;80.26;101559.88;5066373;28;20480;-81
2022/07/31 01:56:11;;;;;;;12.93;9.13;;;;;;;18.03;77.54;101555.94;5068171;28;20188;-81
2022/07/31 01:58:40;;;;;;;13.27;8.73;;;;;;;18.02;76.61;101554.25;5069025;28;20042;-81
2022/07/31 02:01:08;;;;;;;14.13;8.90;;;;;;;18.05;76.72;101559.25;5068522;28;20031;-80
2022/07/31 02:03:35;;;;;;;14.70;9.50;;;;;;;18.03;76.68;101566.91;5068960;28;20040;-81
2022/07/31 02:06:02;;;;;;;13.87;8.57;;;;;;;18.08;76.84;101568.91;5075161;28;20047;-81
2022/07/31 02:08:29;;;;;;;11.63;8.97;;;;;;;18.08;77.66;101568.09;5066600;28;20680;-80
2022/07/31 02:10:56;;;;;;;13.03;8.73;;;;;;;18.08;77.27;101565.34;5066256;28;20048;-80
2022/07/31 02:13:23;;;;;;;11.37;8.50;;;;;;;18.04;77.58;101554.84;5068449;28;20486;-81
2022/07/31 02:15:50;;;;;;;12.97;8.93;;;;;;;18.03;78.36;101561.41;5066958;28;20407;-81
2022/07/31 02:18:16;;;;;;;11.57;8.83;;;;;;;18.03;79.94;101561.41;5066457;28;21459;-81
2022/07/31 02:20:44;;;;;;;11.63;8.37;;;;;;;18.03;78.19;101552.34;5068448;28;20032;-80
2022/07/31 02:23:10;;;;;;;12.43;8.77;;;;;;;18.07;78.29;101560.94;5067826;28;20035;-80
2022/07/31 02:25:38;;;;;;;12.57;8.43;;;;;;;18.06;79.11;101551.88;5067058;28;20338;-81
2022/07/31 02:28:09;;;;;;;10.80;8.17;;;;;;;18.10;78.74;101549.47;5068265;28;20174;-81
2022/07/31 02:30:38;;;;;;;11.93;8.87;;;;;;;17.97;80.79;101548.69;5068263;28;20043;-80
2022/07/31 02:33:04;;;;;;;13.80;8.97;;;;;;;17.98;81.04;101555.84;5067347;28;20050;-80
2022/07/31 02:35:30;;;;;;;12.83;8.87;;;;;;;17.89;80.37;101549.03;5068262;28;20024;-80
2022/07/31 02:37:56;;;;;;;11.80;8.00;;;;;;;17.90;79.31;101558.94;5068473;28;20044;-81
2022/07/31 02:40:24;;;;;;;11.43;7.93;;;;;;;17.85;77.48;101559.66;5067809;28;20059;-82
2022/07/31 02:42:51;;;;;;;12.57;7.83;;;;;;;17.93;76.13;101560.38;5065887;28;20045;-81
2022/07/31 02:45:17;;;;;;;11.73;7.43;;;;;;;17.92;75.82;101562.28;5067151;28;20040;-81
2022/07/31 02:47:43;;;;;;;13.40;7.67;;;;;;;17.92;75.76;101565.03;5067128;28;20048;-81
2022/07/31 02:50:09;;;;;;;12.40;8.17;;;;;;;17.84;76.39;101552.53;5066019;28;20071;-80
2022/07/31 02:52:34;;;;;;;11.27;7.83;;;;;;;17.83;77.19;101556.34;5068256;28;20036;-81
2022/07/31 02:55:01;;;;;;;12.73;8.17;;;;;;;17.83;77.32;101555.50;5065488;28;20551;-80
2022/07/31 02:57:27;;;;;;;12.87;8.40;;;;;;;17.81;76.93;101547.50;5066950;28;20038;-80
2022/07/31 02:59:52;;;;;;;12.27;8.50;;;;;;;17.78;76.73;101542.50;5068431;28;20039;-80
2022/07/31 03:02:18;;;;;;;11.63;8.40;;;;;;;17.83;76.83;101548.09;5066748;28;20127;-79
2022/07/31 03:04:43;;;;;;;10.73;8.50;;;;;;;17.72;77.74;101544.31;5067894;28;20036;-81
2022/07/31 03:07:09;;;;;;;12.43;8.50;;;;;;;17.72;78.04;101541.59;5066148;28;21759;-80
2022/07/31 03:09:35;;;;;;;12.20;8.87;;;;;;;17.77;78.41;101540.03;5075328;28;20088;-80
2022/07/31 03:12:01;;;;;;;12.03;8.53;;;;;;;17.68;79.19;101537.66;5066628;28;20097;-79
2022/07/31 03:14:27;;;;;;;14.03;8.70;;;;;;;17.65;79.41;101545.53;5068219;28;20032;-80
2022/07/31 03:16:53;;;;;;;12.40;8.70;;;;;;;17.66;79.52;101531.56;5066386;28;20402;-80
2022/07/31 03:19:22;;;;;;;14.40;8.67;;;;;;;17.61;79.25;101539.72;5066229;28;20040;-80
2022/07/31 03:21:48;;;;;;;15.00;9.03;;;;;;;17.62;79.31;101526.84;5067469;28;20032;-80
2022/07/31 03:24:14;;;;;;;13.77;9.63;;;;;;;17.64;79.23;101521.94;5067089;28;20040;-80
2022/07/31 03:26:39;;;;;;;12.67;9.30;;;;;;;17.59;79.58;101522.66;5064981;28;20499;-80
2022/07/31 03:29:05;;;;;;;12.90;8.87;;;;;;;17.56;80.60;101517.69;5066989;28;20032;-81
2022/07/31 03:31:30;;;;;;;12.50;8.87;;;;;;;17.57;80.05;101519.34;5066447;28;20052;-80
2022/07/31 03:33:56;;;;;;;13.70;9.50;;;;;;;17.55;81.08;101529.72;5064449;28;20042;-80
2022/07/31 03:36:22;;;;;;;14.57;9.43;;;;;;;17.50;81.43;101524.97;5065976;28;20044;-81
2022/07/31 03:38:47;;;;;;;12.70;9.87;;;;;;;17.47;81.05;101521.88;5066130;28;20036;-80
2022/07/31 03:41:13;;;;;;;17.13;11.10;;;;;;;17.47;81.24;101525.44;5066426;28;20060;-80
2022/07/31 03:43:40;;;;;;;17.40;11.87;;;;;;;17.45;81.37;101533.06;5066703;28;20367;-80
2022/07/31 03:46:07;;;;;;;13.97;11.70;;;;;;;17.46;81.39;101536.63;5065009;28;20044;-80
2022/07/31 03:48:33;;;;;;;15.77;12.10;;;;;;;17.46;81.61;101528.41;5064479;28;20471;-80
2022/07/31 03:50:58;;;;;;;18.13;12.13;;;;;;;17.48;81.14;101529.84;5066650;28;20042;-81
2022/07/31 03:53:25;;;;;;;17.23;12.90;;;;;;;17.48;80.98;101527.09;5066400;28;20683;-79
2022/07/31 03:55:52;;;;;;;16.97;11.63;;;;;;;17.50;81.16;101526.84;5066023;28;20040;-80
2022/07/31 03:58:22;;;;;;;15.80;11.97;;;;;;;17.47;81.05;101528.16;5066452;28;20418;-79
2022/07/31 04:00:48;;;;;;;18.10;12.10;;;;;;;17.51;81.25;101531.28;5065519;28;20048;-79
2022/07/31 04:03:13;;;;;;;18.43;11.50;;;;;;;17.48;81.97;101520.81;5063696;28;20481;-80
2022/07/31 04:05:40;;;;;;;18.60;13.97;;;;;;;17.48;82.52;101529.03;5066186;28;20089;-80
2022/07/31 04:08:07;;;;;;;17.63;13.37;;;;;;;17.44;82.47;101525.09;5063744;28;20035;-79
2022/07/31 04:10:34;;;;;;;19.13;14.10;;;;;;;17.51;82.27;101539.50;5066300;28;20151;-81
2022/07/31 04:13:01;;;;;;;19.00;13.73;;;;;;;17.51;82.12;101536.75;5065760;28;20028;-79
2022/07/31 04:15:27;;;;;;;18.67;13.40;;;;;;;17.46;82.18;101536.63;5065581;28;20144;-80
2022/07/31 04:17:52;;;;;;;19.47;14.03;;;;;;;17.51;82.07;101544.97;5065433;28;20041;-80
2022/07/31 04:20:18;;;;;;;18.80;13.47;;;;;;;17.50;82.17;101532.34;5065581;28;20040;-81
2022/07/31 04:22:44;;;;;;;22.97;14.63;;;;;;;17.49;82.13;101533.44;5065491;28;20676;-81
2022/07/31 04:25:09;;;;;;;17.80;14.43;;;;;;;17.48;82.10;101531.75;5066551;28;20559;-79
2022/07/31 04:27:35;;;;;;;19.83;15.93;;;;;;;17.50;82.00;101537.81;5065471;28;20032;-81
2022/07/31 04:30:01;;;;;;;21.93;15.37;;;;;;;17.46;82.01;101540.22;5066520;28;20589;-80
2022/07/31 04:32:35;;;;;;;21.00;15.53;;;;;;;17.50;81.67;101540.56;5064782;28;20425;-81
2022/07/31 04:35:01;;;;;;;20.37;15.20;;;;;;;17.50;81.49;101543.28;5064860;28;20047;-80
2022/07/31 04:37:27;;;;;;;19.90;15.00;;;;;;;17.51;81.75;101548.53;5064620;28;20032;-81
2022/07/31 04:39:53;;;;;;;20.57;16.13;;;;;;;17.52;81.61;101544.72;5065590;28;20044;-80
2022/07/31 04:42:21;;;;;;;20.73;15.30;;;;;;;17.53;81.69;101548.31;5065473;28;20391;-80
2022/07/31 04:44:46;;;;;;;23.00;15.63;;;;;;;17.51;81.71;101543.06;5065080;28;20098;-82
2022/07/31 04:47:12;;;;;;;20.50;15.63;;;;;;;17.52;81.75;101546.66;5065241;28;20117;-80
2022/07/31 04:49:38;;;;;;;20.30;14.60;;;;;;;17.53;81.55;101551.06;5064779;28;20040;-80
2022/07/31 04:52:04;;;;;;;22.37;14.90;;;;;;;17.51;82.35;101539.50;5065938;28;20529;-81
2022/07/31 04:54:30;;;;;;;17.57;14.27;;;;;;;17.50;81.38;101533.19;5062831;28;20476;-80
2022/07/31 04:56:55;;;;;;;17.93;13.53;;;;;;;17.55;82.13;101543.41;5065151;28;20041;-80
2022/07/31 04:59:21;;;;;;;16.53;13.00;;;;;;;17.55;81.73;101537.94;5065044;28;20032;-80
2022/07/31 05:01:48;;;;;;;16.33;13.43;;;;;;;17.58;81.75;101542.91;5064502;28;20044;-81
2022/07/31 05:04:14;;;;;;;17.60;12.97;;;;;;;17.60;81.60;101543.53;5064958;28;20189;-81
2022/07/31 05:06:41;;;;;;;16.53;12.27;;;;;;;17.60;81.80;101540.78;5065812;28;20043;-81
2022/07/31 05:09:11;;;;;;;16.33;12.37;;;;;;;17.58;82.08;101531.97;5064643;28;20802;-80
2022/07/31 05:11:37;;;;;;;16.23;11.97;;;;;;;17.60;82.03;101534.44;5065720;28;20032;-81
2022/07/31 05:14:04;;;;;;;18.77;11.90;;;;;;;17.58;82.46;101525.66;5064989;28;20047;-80
2022/07/31 05:16:32;;;;;;;16.87;11.27;;;;;;;17.57;83.38;101535.78;5062654;28;20534;-81
2022/07/31 05:18:58;;;;;;;15.27;11.17;;;;;;;17.52;83.94;101527.47;5064603;28;20036;-80
2022/07/31 05:21:25;;;;;;;15.13;10.93;;;;;;;17.50;85.06;101529.59;5065354;28;20470;-80
2022/07/31 05:23:52;;;;;;;16.53;11.13;;;;;;;17.50;84.62;101529.59;5064898;28;20295;-81
2022/07/31 05:26:18;;;;;;;17.40;11.73;;;;;;;17.42;86.11;101527.22;5064906;28;20036;-79
2022/07/31 05:28:43;;;;;;;15.30;11.27;;;;;;;17.38;86.26;101518.69;5064863;28;20082;-81
2022/07/31 05:31:09;;;;;;;15.80;11.30;;;;;;;17.35;86.96;101521.88;5065652;28;20036;-82
2022/07/31 05:33:35;;;;;;;15.07;11.33;;;;;;;17.40;87.05;101518.44;5064960;28;20116;-81
2022/07/31 05:36:02;;;;;;;16.50;11.50;;;;;;;17.37;88.15;101520.56;5063866;28;20051;-80
2022/07/31 05:38:27;;;;;;;13.57;10.87;;;;;;;17.38;88.38;101508.56;5064197;28;20806;-80
2022/07/31 05:40:53;;;;;;;15.67;10.87;;;;;;;17.35;88.18;101510.94;5064852;28;20680;-78
2022/07/31 05:43:18;;;;;;;17.17;10.30;;;;;;;17.39;88.26;101509.38;5064696;28;20127;-79
2022/07/31 05:45:45;;;;;;;16.93;10.57;;;;;;;17.41;88.42;101509.13;5064739;28;20052;-80
2022/07/31 05:48:12;;;;;;;12.67;9.93;;;;;;;17.43;88.08;101520.69;5064610;28;20089;-79
2022/07/31 05:50:47;;;;;;;12.93;9.87;;;;;;;17.45;88.42;101521.25;5065006;28;21507;-79
2022/07/31 05:53:16;;;;;;;13.73;9.63;;;;;;;17.47;88.43;101519.94;5064131;28;20046;-79
2022/07/31 05:55:43;;;;;;;13.00;9.37;;;;;;;17.44;88.96;101520.44;5064696;28;20646;-82
2022/07/31 05:58:08;;;;;;;14.77;9.27;;;;;;;17.46;88.71;101511.97;5063791;28;20028;-80
2022/07/31 06:00:34;;;;;;;14.43;9.40;;;;;;;17.51;88.63;101520.31;5065300;28;20459;-79
2022/07/31 06:03:00;;;;;;;13.10;9.07;;;;;;;17.49;89.01;101522.47;5063843;28;20040;-79
2022/07/31 06:05:26;;;;;;;14.37;8.97;;;;;;;17.52;88.97;101532.94;5065415;28;20032;-80
2022/07/31 06:07:52;;;;;;;11.53;8.20;;;;;;;17.54;88.72;101522.56;5065452;28;20054;-80
2022/07/31 06:10:18;;;;;;;13.20;8.17;;;;;;;17.56;88.71;101525.91;5065017;28;20032;-81
2022/07/31 06:12:44;;;;;;;11.43;8.40;;;;;;;17.56;88.97;101531.38;5064412;28;20526;-80
2022/07/31 06:15:09;;;;;;;12.40;8.00;;;;;;;17.61;88.73;101533.38;5063959;28;20059;-82
2022/07/31 06:17:37;;;;;;;13.77;8.30;;;;;;;17.64;89.35;101532.88;5065148;28;20135;-79
2022/07/31 06:20:03;;;;;;;11.37;7.70;;;;;;;17.65;89.09;101532.69;5064639;28;20655;-81
2022/07/31 06:22:28;;;;;;;16.67;8.00;;;;;;;17.69;89.08;101519.31;5064970;28;20036;-81
2022/07/31 06:24:54;;;;;;;11.83;8.27;;;;;;;17.74;89.30;101516.66;5067771;28;20490;-81
2022/07/31 06:27:19;;;;;;;11.50;7.53;;;;;;;17.78;89.05;101519.78;5068665;28;20036;-81
2022/07/31 06:29:44;;;;;;;11.90;7.90;;;;;;;17.84;89.13;101524.25;5068726;28;20029;-80
2022/07/31 06:32:10;;;;;;;11.40;7.50;;;;;;;17.87;89.00;101523.78;5068076;28;20119;-81
2022/07/31 06:34:35;;;;;;;11.23;7.90;;;;;;;17.89;89.41;101516.13;5068584;28;20394;-79
2022/07/31 06:37:00;;;;;;;10.43;7.33;;;;;;;17.95;89.53;101517.09;5067857;28;20043;-79
2022/07/31 06:39:25;;;;;;;12.43;7.47;;;;;;;17.98;89.44;101506.47;5067810;28;20039;-78
2022/07/31 06:41:52;;;;;;;10.67;7.20;;;;;;;17.99;88.68;101505.41;5067266;28;20085;-80
2022/07/31 06:44:18;;;;;;;12.57;7.20;;;;;;;18.06;89.37;101513.50;5066645;28;20377;-79
2022/07/31 06:46:45;;;;;;;10.67;7.30;;;;;;;18.07;88.54;101506.91;5067001;28;21226;-80
2022/07/31 06:49:11;;;;;;;9.47;6.90;;;;;;;18.13;89.19;101510.56;5067553;28;20119;-79
2022/07/31 06:51:36;;;;;;;10.83;7.20;;;;;;;18.15;88.61;101508.44;5067490;28;20067;-78
2022/07/31 06:54:05;;;;;;;10.77;7.07;;;;;;;18.17;88.80;101517.25;5066949;28;20527;-80
2022/07/31 06:56:33;;;;;;;10.10;7.40;;;;;;;18.14;88.74;101507.59;5068129;28;20105;-81
2022/07/31 06:58:59;;;;;;;12.37;7.27;;;;;;;18.29;89.20;101518.03;5066522;28;20047;-79
2022/07/31 07:01:24;;;;;;;13.30;8.27;;;;;;;18.33;89.17;101521.94;5066291;28;20702;-80
2022/07/31 07:03:50;;;;;;;16.87;8.63;;;;;;;18.36;88.20;101526.09;5066780;28;20139;-81
2022/07/31 07:06:15;;;;;;;14.03;8.10;;;;;;;18.40;87.88;101521.78;5065856;28;20070;-79
2022/07/31 07:08:41;;;;;;;13.47;8.83;;;;;;;18.42;88.33;101519.59;5067601;28;20265;-80
2022/07/31 07:11:06;;;;;;;16.37;8.40;;;;;;;18.48;87.68;101515.88;5067698;28;20036;-78
2022/07/31 07:13:32;;;;;;;13.00;8.70;;;;;;;18.51;88.02;101520.03;5067294;28;20051;-79
2022/07/31 07:15:57;;;;;;;13.70;8.40;;;;;;;18.57;88.31;101516.28;5064962;28;20468;-78
2022/07/31 07:18:23;;;;;;;14.40;8.60;;;;;;;18.63;88.08;101520.78;5066834;28;20045;-78
2022/07/31 07:20:49;;;;;;;14.07;9.53;;;;;;;18.64;87.43;101508.69;5067520;28;20452;-77
2022/07/31 07:23:14;;;;;;;16.03;10.47;;;;;;;18.66;86.59;101509.31;5066740;28;20044;-79
2022/07/31 07:25:40;;;;;;;15.63;9.90;;;;;;;18.73;87.67;101514.63;5067036;28;20036;-79
2022/07/31 07:28:07;;;;;;;14.90;9.47;;;;;;;18.73;87.05;101503.63;5066762;28;20064;-78
2022/07/31 07:30:33;;;;;;;16.17;10.37;;;;;;;18.79;87.23;101510.03;5067759;28;20044;-80
2022/07/31 07:32:58;;;;;;;17.20;10.27;;;;;;;18.82;86.72;101512.28;5066772;28;20039;-78
2022/07/31 07:35:24;;;;;;;17.10;10.27;;;;;;;18.93;86.76;101511.41;5066350;28;20491;-77
2022/07/31 07:37:50;;;;;;;17.37;10.13;;;;;;;19.00;86.54;101508.47;5066270;28;20388;-81
2022/07/31 07:40:16;;;;;;;18.00;10.82;;;;;;;19.03;86.04;101514.28;5066900;28;20097;-81
2022/07/31 07:42:41;;;;;;;18.42;11.50;;;;;;;19.08;86.11;101520.91;5067046;28;20042;-80
2022/07/31 07:45:07;;;;;;;17.67;10.85;;;;;;;19.12;86.16;101511.94;5064817;28;20742;-81
2022/07/31 07:47:32;;;;;;;17.63;10.93;;;;;;;19.22;86.22;101508.50;5066876;28;20056;-80
2022/07/31 07:49:58;;;;;;;20.10;12.15;;;;;;;19.31;86.33;101498.75;5066578;28;20127;-79
2022/07/31 07:52:23;;;;;;;20.25;11.77;;;;;;;19.35;84.40;101493.53;5067622;28;20071;-81
2022/07/31 07:54:49;;;;;;;17.70;12.38;;;;;;;19.47;85.14;101497.00;5066768;28;20415;-79
2022/07/31 07:57:15;;;;;;;19.83;12.32;;;;;;;19.52;84.63;101496.25;5066015;28;20068;-79
2022/07/31 07:59:41;;;;;;;18.13;13.10;;;;;;;19.62;84.34;101495.53;5066671;28;20471;-78
2022/07/31 08:02:07;;;;;;;19.20;12.57;;;;;;;19.63;83.75;101495.28;5064630;28;20032;-80
2022/07/31 08:04:32;;;;;;;21.08;12.90;;;;;;;19.71;83.67;101496.75;5066407;28;20047;-78
2022/07/31 08:06:57;;;;;;;18.15;13.20;;;;;;;19.63;82.67;101500.78;5064182;28;20157;-80
2022/07/31 08:09:23;;;;;;;18.00;11.93;;;;;;;19.69;82.85;101507.16;5065207;28;20226;-79
2022/07/31 08:11:48;;;;;;;17.45;13.05;;;;;;;19.67;83.23;101496.41;5066514;28;20119;-79
2022/07/31 08:14:14;;;;;;;18.42;12.95;;;;;;;19.71;83.27;101489.31;5064666;28;20541;-78
2022/07/31 08:16:39;;;;;;;18.80;12.82;;;;;;;19.78;83.25;101502.03;5060490;28;20174;-79
2022/07/31 08:19:05;;;;;;;18.25;12.55;;;;;;;19.93;83.24;101488.47;5061442;28;20051;-79
2022/07/31 08:21:30;;;;;;;16.95;12.32;;;;;;;20.07;83.05;101495.25;5063030;28;20036;-78
2022/07/31 08:23:56;;;;;;;17.13;11.82;;;;;;;20.15;82.35;101495.84;5062304;28;20115;-78
2022/07/31 08:26:21;;;;;;;18.35;12.02;;;;;;;20.12;81.86;101490.88;5062832;28;20032;-79
2022/07/31 08:28:46;;;;;;;16.88;11.80;;;;;;;20.13;82.36;101489.78;5061298;28;20505;-79
2022/07/31 08:31:12;;;;;;;16.05;11.63;;;;;;;20.22;81.88;101496.44;5062266;28;20043;-80
2022/07/31 08:33:37;;;;;;;16.45;11.85;;;;;;;20.25;81.47;101487.69;5062097;28;20025;-82
2022/07/31 08:36:03;;;;;;;18.38;11.75;;;;;;;20.39;81.04;101488.91;5062194;28;21565;-79
2022/07/31 08:38:29;;;;;;;16.73;12.38;;;;;;;20.42;80.83;101490.31;5062474;28;20071;-81
2022/07/31 08:40:54;;;;;;;17.58;11.95;;;;;;;20.53;81.04;101497.53;5062352;28;20040;-80
2022/07/31 08:43:20;;;;;;;16.27;11.35;;;;;;;20.57;79.99;101504.19;5061489;28;20040;-80
2022/07/31 08:45:47;;;;;;;16.88;11.55;;;;;;;20.48;79.57;101499.44;5060994;28;20033;-78
2022/07/31 08:48:14;;;;;;;14.73;11.10;;;;;;;20.42;79.80;101495.81;5061589;28;20061;-78
2022/07/31 08:50:43;;;;;;;15.73;11.60;;;;;;;20.37;80.77;101495.75;5060841;28;20097;-78
2022/07/31 08:53:14;;;;;;;14.90;11.30;;;;;;;20.38;81.21;101494.69;5061771;28;20064;-78
2022/07/31 08:55:42;;;;;;;15.38;10.98;;;;;;;20.42;80.50;101496.63;5065785;28;20414;-79
2022/07/31 08:58:07;;;;;;;15.18;11.30;;;;;;;20.44;80.78;101498.28;5064787;28;20050;-80
2022/07/31 09:00:33;;;;;;;15.77;11.15;;;;;;;20.50;81.25;101497.25;5064378;28;20047;-79
2022/07/31 09:02:59;;;;;;;17.25;11.65;;;;;;;20.45;81.02;101499.97;5065479;28;20403;-80
2022/07/31 09:05:24;;;;;;;17.08;10.75;;;;;;;20.46;80.51;101513.47;5065072;28;20384;-79
2022/07/31 09:07:50;;;;;;;15.30;11.30;;;;;;;20.40;80.96;101501.59;5065635;28;20391;-79
2022/07/31 09:10:27;;;;;;;15.55;11.02;;;;;;;20.47;81.72;101508.81;5064862;28;20143;-80
2022/07/31 09:12:53;;;;;;;15.73;11.18;;;;;;;20.48;81.22;101510.44;5065366;28;20043;-79
2022/07/31 09:15:27;;;;;;;14.18;10.27;;;;;;;20.54;81.16;101499.22;5064923;28;20040;-79
2022/07/31 09:17:53;;;;;;;14.65;10.38;;;;;;;20.56;81.13;101493.44;5064901;28;20028;-82
2022/07/31 09:20:24;;;;;;;15.35;10.73;;;;;;;20.59;80.84;101492.94;5064758;28;20239;-80
2022/07/31 09:23:09;;;;;;;15.90;11.40;;;;;;;20.65;80.84;101477.28;5065708;28;20866;-79
2022/07/31 09:25:35;;;;;;;14.90;10.90;;;;;;;20.64;81.01;101486.63;5065122;28;20036;-81
2022/07/31 09:28:02;;;;;;;15.73;11.73;;;;;;;20.56;80.69;101493.44;5064389;28;20066;-81
2022/07/31 09:30:28;;;;;;;15.90;11.60;;;;;;;20.63;80.74;101491.31;5065612;28;20272;-79
2022/07/31 09:32:53;;;;;;;13.68;11.02;;;;;;;20.71;81.38;101487.25;5065702;28;20039;-81
2022/07/31 09:35:18;;;;;;;15.52;11.05;;;;;;;20.77;80.94;101483.44;5063490;28;20143;-78
2022/07/31 09:37:48;;;;;;;13.73;10.80;;;;;;;20.86;81.24;101492.03;5065417;28;20993;-78
2022/07/31 09:40:13;;;;;;;15.70;10.98;;;;;;;20.95;81.04;101487.69;5064095;28;20613;-79
2022/07/31 09:42:46;;;;;;;13.88;10.07;;;;;;;21.03;80.29;101492.69;5063860;28;20056;-79
2022/07/31 09:45:24;;;;;;;14.70;9.52;;;;;;;21.18;80.71;101485.63;5063989;28;20047;-80
2022/07/31 09:48:11;;;;;;;13.88;10.05;;;;;;;21.24;80.25;101495.56;5065345;28;20043;-79
2022/07/31 09:50:58;;;;;;;13.20;9.70;;;;;;;21.29;79.71;101498.34;5063935;28;21338;-79
2022/07/31 09:53:24;;;;;;;14.50;10.00;;;;;;;21.37;79.61;101489.56;5064699;28;20383;-79
2022/07/31 09:55:55;;;;;;;12.68;9.55;;;;;;;21.41;78.50;101479.66;5064708;28;20044;-77
2022/07/31 09:58:22;;;;;;;13.20;10.15;;;;;;;21.45;77.96;101479.13;5065265;28;20121;-80
2022/07/31 10:00:51;;;;;;;12.75;10.00;;;;;;;21.54;78.04;101481.13;5063414;28;20036;-78
2022/07/31 10:03:18;;;;;;;14.27;10.05;;;;;;;21.54;77.50;101483.88;5062868;28;20735;-80
2022/07/31 10:05:44;;;;;;;12.75;10.00;;;;;;;21.62;77.20;101485.25;5063739;28;20047;-79
2022/07/31 10:08:12;;;;;;;14.90;9.90;;;;;;;21.70;76.73;101478.41;5064480;28;20048;-79
2022/07/31 10:10:38;;;;;;;13.02;9.55;;;;;;;21.79;75.90;101473.19;5064140;28;20105;-78
2022/07/31 10:13:07;;;;;;;13.40;9.27;;;;;;;21.89;75.35;101481.47;5064192;28;20032;-78
2022/07/31 10:15:36;;;;;;;14.00;10.35;;;;;;;21.84;75.82;101481.47;5064082;28;20086;-79
2022/07/31 10:18:37;;;;;;;11.45;8.93;;;;;;;21.94;76.23;101486.19;5062422;28;20235;-80
2022/07/31 10:21:05;;;;;;;12.57;9.52;;;;;;;21.92;75.33;101478.16;5058800;28;20051;-78
2022/07/31 10:23:32;;;;;;;12.73;8.75;;;;;;;21.95;74.96;101479.56;5063651;28;20089;-80
2022/07/31 10:25:59;;;;;;;13.15;8.90;;;;;;;22.04;75.54;101475.97;5063621;28;20043;-80
2022/07/31 10:28:26;;;;;;;11.60;8.63;;;;;;;22.13;75.50;101475.47;5064058;28;20020;-79
2022/07/31 10:30:51;;;;;;;12.25;8.25;;;;;;;22.19;75.50;101460.53;5063306;28;20064;-78
2022/07/31 10:33:18;;;;;;;10.00;7.85;;;;;;;22.25;74.94;101464.97;5063198;28;20043;-79
2022/07/31 10:35:47;;;;;;;10.30;6.97;;;;;;;22.37;74.14;101462.78;5063347;28;20052;-80
2022/07/31 10:38:37;;;;;;;12.18;7.88;;;;;;;22.42;73.79;101462.81;5063140;28;20094;-78
2022/07/31 10:41:37;;;;;;;9.35;7.13;;;;;;;22.57;73.92;101466.63;5063812;28;20033;-78
2022/07/31 10:44:10;;;;;;;10.15;6.97;;;;;;;22.61;73.65;101462.22;5063758;28;20050;-80
2022/07/31 10:46:35;;;;;;;9.80;6.40;;;;;;;22.69;72.25;101463.59;5064514;28;20043;-80
2022/07/31 10:49:01;;;;;;;10.45;6.18;;;;;;;22.77;71.97;101458.31;5064141;28;20388;-78
2022/07/31 10:51:26;;;;;;;8.55;5.30;;;;;;;22.79;71.06;101452.50;5063378;28;20081;-79
2022/07/31 10:53:54;;;;;;;10.85;5.65;;;;;;;22.79;71.04;101465.50;5064811;28;20037;-79
2022/07/31 10:56:20;;;;;;;9.75;5.30;;;;;;;22.81;71.38;101455.00;5064891;28;20044;-80
2022/07/31 10:58:53;;;;;;;6.75;5.07;;;;;;;22.82;70.84;101453.88;5063975;28;20039;-79
2022/07/31 11:01:19;;;;;;;5.68;5.07;;;;;;;22.80;70.19;101443.13;5063713;28;20081;-77
2022/07/31 11:03:47;;;;;;;6.30;5.10;;;;;;;22.72;71.66;101452.78;5058785;28;20754;-79
2022/07/31 11:06:14;;;;;;;5.30;4.80;;;;;;;22.65;71.82;101452.25;5063128;28;20032;-78
2022/07/31 11:08:41;;;;;;;7.88;5.28;;;;;;;22.58;72.43;101451.72;5064281;28;20032;-79
2022/07/31 11:11:06;;;;;;;7.25;4.82;;;;;;;22.53;71.67;101454.50;5063250;28;20032;-80
2022/07/31 11:13:32;;;;;;;10.50;4.97;;;;;;;22.54;71.79;101437.63;5063689;28;20060;-79